Aérodrome :
LOGIN :

S'inscrire | Disclaimer

   EN    FR    IT 

 










Légende :    VFR   VFR Marginal   IFR   IFR Intensif   IFR Très Intensif
Visi : 
Plafond : 
>= 8 km
>= 3000ft
5 à 8 km
1000 à 3000 ft
1500m à 5 km
500 à 1000 ft
800 à 1500m
200 à 500 ft
< 800m
< 200 ft
Symboles :   Orages  Brouillard  Fortes neiges  Fortes précipitations  Vent > 20 kt
SIGMETs :   Divers  Orages  Givrage  Turbulence  Onde Orograph.  Cendres Volcan.







- Altitude de l'aérodrome : 1989 ft
- Code IATA : KLV


LKKV - Karlovy Vary

DERNIER METAR :
  • 141700Z 26011KT 220V290 CAVOK 19/12 Q1015

METARs EXPIRÉS :
  • 141630Z 27013KT 230V300 9999 FEW039 20/11 Q1015
  • 141600Z 25009KT 9999 FEW047 21/11 Q1015
  • 141530Z 26012KT 210V290 CAVOK 21/10 Q1015
  • 141500Z 27012KT 210V300 CAVOK 21/10 Q1015
  • 141430Z 27011KT 220V300 9999 FEW042 21/10 Q1015

TAF TAF LKKV
Valide du 14 à 12h jusqu'au 15 à 18h UTC


141100Z 1412/1518 26006KT CAVOK
PROB40
TEMPO 1412/1419 27010G20KT 7000 SHRA SCT030TCU BKN040
PROB30
TEMPO 1511/1517 33010KT 7000 SHRA SCT040TCU
BECMG 1517/1518 VRB02KT
Pas de NOTAMs connus pour ce terrain.



MET'MAP, la Météo Aéronautique d'un coup d'oeil ! - Copyright ORBIFLY Décembre 2007 - Disclaimer

ORBIFLY MET'MAP TEAM :

Programmation & Développement : Alexandra Zaïnal
Conception & Développement : Baudouin d'Aumeries
Co-Programmation & Développement : Marc-Olivier Méhu
Soutien technique & logistique : Manuel Goepfert

Contact : metmap@orbifly.com




SOURCES & CREDITS :

   NOAA